WetterOnline ( https://www.wetteronline.ch )

Wetter aktuell Helgoland

Aktuelles Wetter: Helgoland/Düne (8m)

6-stündlich | Neueste Meldungen
Ortszeit Temperatur Wetter
Di, 31.01. 1:00 5.6° C bewölkt
Mo, 30.01. 19:00 6.3° C leicht bewölkt
Mo, 30.01. 13:00 7.2° C leicht bewölkt
Mo, 30.01. 7:00 6.9° C Dunst
Mo, 30.01. 1:00 6.8° C leichter Regen
So, 29.01. 19:00 6.3° C wolkig
So, 29.01. 13:00 5.6° C leichter Regen
So, 29.01. 7:00 5.6° C leichter Regen
Ortszeit Temperatur Wetter
Di, 31.01. 4:00 6.4° C wolkig
Di, 31.01. 3:50 6.4° C wolkig
Di, 31.01. 3:40 6.3° C bedeckt
Di, 31.01. 3:30 5.8° C bewölkt
Di, 31.01. 3:20 5.8° C bewölkt
Di, 31.01. 3:10 6.4° C bedeckt
Di, 31.01. 3:00 6.3° C bewölkt
Di, 31.01. 2:30 6.1° C wolkig
Di, 31.01. 2:00 5.9° C leicht bewölkt
Di, 31.01. 1:30 4.7° C Regen
Di, 31.01. 1:00 5.6° C bewölkt
Ortszeit Relative Feuchte Sichtweite
Di, 31.01. 1:00 82% 9 km
Mo, 30.01. 19:00 72% 14 km
Mo, 30.01. 13:00 74% 8 km
Mo, 30.01. 7:00 78% 7 km
Mo, 30.01. 1:00 91% 4.3 km
So, 29.01. 19:00 87% 10 km
So, 29.01. 13:00 94% 3.4 km
So, 29.01. 7:00 96% 2.4 km
Ortszeit Relative Feuchte Sichtweite
Di, 31.01. 4:00 77% 12 km
Di, 31.01. 3:50 77% -
Di, 31.01. 3:40 78% -
Di, 31.01. 3:30 80% 12 km
Di, 31.01. 3:20 80% -
Di, 31.01. 3:10 78% -
Di, 31.01. 3:00 78% 11 km
Di, 31.01. 2:30 77% 12 km
Di, 31.01. 2:00 77% 15 km
Di, 31.01. 1:30 81% 2.2 km
Di, 31.01. 1:00 82% 9 km
Ortszeit Niederschlagsmenge Niederschlagsart
Di, 31.01. 1:00 0.5 l/m2 in 6 Std. Regen
Mo, 30.01. 19:00 0.3 l/m2 in 12 Std. Regen
Mo, 30.01. 13:00 0.2 l/m2 in 6 Std. Regen
Mo, 30.01. 7:00 3 l/m2 in 12 Std. Regen
Mo, 30.01. 1:00 0.1 l/m2 in 6 Std. Regen
So, 29.01. 19:00 1 l/m2 in 12 Std. Regen
So, 29.01. 13:00 0.9 l/m2 in 6 Std. Regen
So, 29.01. 7:00 1 l/m2 in 12 Std. Regen
Ortszeit Niederschlagsmenge Niederschlagsart
Di, 31.01. 4:00 0.0 l/m2 in 1 Std. Regen
Di, 31.01. 3:50 keine Meldung -
Di, 31.01. 3:40 keine Meldung -
Di, 31.01. 3:30 0.0 l/m2 in 30 Min -
Di, 31.01. 3:20 keine Meldung -
Di, 31.01. 3:10 keine Meldung -
Di, 31.01. 3:00 <0.05 l/m2 in 1 Std. Regen
Di, 31.01. 2:30 0.0 l/m2 in 30 Min -
Di, 31.01. 2:00 0.2 l/m2 in 1 Std. Regen
Di, 31.01. 1:30 <0.05 l/m2 in 30 Min -
Di, 31.01. 1:00 0.2 l/m2 in 1 Std. Regen
Ortszeit Stärke Spitze Richtung
km/h Bft. km/h Grad Sektor
Di, 31.01. 1:00 31 5 80 310° NW
Mo, 30.01. 19:00 43 6 76 310° NW
Mo, 30.01. 13:00 52 7 89 300° NW
Mo, 30.01. 7:00 43 6 65 280° W
Mo, 30.01. 1:00 43 6 72 250° W
So, 29.01. 19:00 40 6 61 240° SW
So, 29.01. 13:00 37 5 54 240° SW
So, 29.01. 7:00 30 5 41 250° W
Ortszeit Stärke Spitze Richtung
km/h Bft. km/h Grad Sektor
Di, 31.01. 4:00 25 4 43 290° W
Di, 31.01. 3:50 25 4 - 290° W
Di, 31.01. 3:40 19 3 - 290° W
Di, 31.01. 3:30 26 4 43 310° NW
Di, 31.01. 3:20 26 4 - 310° NW
Di, 31.01. 3:10 31 5 - 290° W
Di, 31.01. 3:00 28 4 48 290° W
Di, 31.01. 2:30 35 5 48 300° NW
Di, 31.01. 2:00 37 5 63 300° NW
Di, 31.01. 1:30 37 5 63 290° W
Di, 31.01. 1:00 31 5 61 310° NW
Ortszeit Untergrenze Bedeckung Gattung
total tief tief mittel hoch
Di, 31.01. 1:00 630 m 7/8 7/8 - - -
Mo, 30.01. 19:00 990 m 3/8 3/8 - - -
Mo, 30.01. 13:00 840 m 3/8 3/8 - - -
Mo, 30.01. 7:00 690 m 4/8 3/8 - - -
Mo, 30.01. 1:00 330 m 7/8 7/8 - - -
So, 29.01. 19:00 510 m 8/8 2/8 - - -
So, 29.01. 13:00 150 m 8/8 8/8 - - -
So, 29.01. 7:00 240 m 8/8 8/8 - - -
Ortszeit Bedeckungsgrad in Achtel und Wolkenuntergrenze
Di, 31.01. 4:00 2(810m) 7(3300m) 8(3900m)
Di, 31.01. 3:50 2(810m) 7(3300m) 8(3900m)
Di, 31.01. 3:40 8
Di, 31.01. 3:30 2(750m) 6(1350m) 8(3900m)
Di, 31.01. 3:20 2(750m) 6(1350m) 8(3900m)
Di, 31.01. 3:10 8
Di, 31.01. 3:00 3(660m) 6(1170m) 8(4200m)
Di, 31.01. 2:30 5(960m) 7(3900m) 7(8100m)
Di, 31.01. 2:00 1(810m) 4(6900m) 5(8700m)
Di, 31.01. 1:30 1(540m) 4(930m) 7(1470m)
Di, 31.01. 1:00 4(630m) 6(900m) 7(1080m)
Ortszeit Luftdruck NN (hPa) Tendenz (hPa in 3 Std.)
Di, 31.01. 1:00 1017 + 0,9
Mo, 30.01. 19:00 1014 + 3,8
Mo, 30.01. 13:00 1006 + 1,4
Mo, 30.01. 7:00 1005 - 0,4
Mo, 30.01. 1:00 1008 - 3,5
So, 29.01. 19:00 1014 - 2,8
So, 29.01. 13:00 1020 - 2,1
So, 29.01. 7:00 1023 - 1,2
Ortszeit Luftdruck NN (hPa) Tendenz (hPa in 3 Std.)
Di, 31.01. 4:00 1017 - 0,6
Di, 31.01. 3:50 1017 keine Meldung
Di, 31.01. 3:40 1017 keine Meldung
Di, 31.01. 3:30 1017 - 0,1
Di, 31.01. 3:20 1017 keine Meldung
Di, 31.01. 3:10 1017 keine Meldung
Di, 31.01. 3:00 1017 - 0,2
Di, 31.01. 2:30 1017 - 0,2
Di, 31.01. 2:00 1017 0,0
Di, 31.01. 1:30 1018 + 0,8
Di, 31.01. 1:00 1017 + 0,9
Ortszeit Schneehöhe (cm)
Di, 31.01. 1:00 0
Mo, 30.01. 19:00 0
Mo, 30.01. 13:00 0
Mo, 30.01. 7:00 0
Mo, 30.01. 1:00 0
So, 29.01. 19:00 0
So, 29.01. 13:00 0
So, 29.01. 7:00 0
Ortszeit Schneehöhe (cm)
Di, 31.01. 4:00 0
Di, 31.01. 3:50 0
Di, 31.01. 3:40 0
Di, 31.01. 3:30 0
Di, 31.01. 3:20 0
Di, 31.01. 3:10 0
Di, 31.01. 3:00 0
Di, 31.01. 2:30 0
Di, 31.01. 2:00 0
Di, 31.01. 1:30 0
Di, 31.01. 1:00 0
Link zu dieser Seite / Seite empfehlen

Das Wetter in ...